Kalamazoo, Michigan
Current Conditions -  °F | °C
As of 10:53 AM on Monday 24 Nov 2014 (Local Time) from KAZO Reporting Station
Light Rain Light Rain  
Wind Chill: 52°   Ceiling: 1700
Heat Index: 52°   Visibility: 3mi
Dew Point: 50°   Wind: 6mph
Humidity: 93%   Direction: 260°W
Pressure: 29.08"   Gusts: NA
Location:  42.29°N, 85.6°W
Report Text: KAZO 241553Z 26005KT 3SM -RA BR SCT005 BKN017 OVC024 11/10 A2908 RMK AO2 RAB07 SLP847 P0007 T01110100
Loading
Personal Weather Stations






























Interactive Weather Map New forecast layout! Learn more

10-Day Weather Forecast

Advertisements
Track Severe Weather on mobile